Time;durP1;ratioP1;P1;durP2;ratioP2;P2;SDS_P1;SDS_P2;PMS_P1;PMS_P2;Temp;Humidity;BMP_temperature;BMP_pressure;BME280_temperature;BME280_humidity;BME280_pressure;Samples;Min_cycle;Max_cycle;Signal;HPM_P1;HPM_P2
2022/09/23 00:01:13;;;;;;;0.00;0.00;;;9.90;99.90;;;;;;5041439;28;20177;-64
2022/09/23 00:03:41;;;;;;;0.00;0.00;;;9.80;99.90;;;;;;5041722;28;20600;-64
2022/09/23 00:06:09;;;;;;;0.00;0.00;;;9.90;99.90;;;;;;5044137;28;20259;-64
2022/09/23 00:08:35;;;;;;;0.15;0.10;;;9.90;99.90;;;;;;5041277;28;20269;-64
2022/09/23 00:11:11;;;;;;;0.00;0.00;;;9.90;99.90;;;;;;5038740;28;20284;-64
2022/09/23 00:13:38;;;;;;;0.00;0.00;;;9.90;99.90;;;;;;5036183;28;20284;-64
2022/09/23 00:16:05;;;;;;;0.13;0.13;;;9.90;99.90;;;;;;5049135;28;20691;-64
2022/09/23 00:18:31;;;;;;;0.00;0.00;;;9.90;99.90;;;;;;5038679;28;20204;-64
2022/09/23 00:20:56;;;;;;;0.15;0.15;;;9.90;99.90;;;;;;5039687;28;20201;-64
2022/09/23 00:23:22;;;;;;;0.00;0.00;;;9.90;99.90;;;;;;5039259;28;20218;-64
2022/09/23 00:25:58;;;;;;;0.00;0.00;;;9.90;99.90;;;;;;5037189;28;20214;-64
2022/09/23 00:28:24;;;;;;;0.00;0.00;;;9.90;99.90;;;;;;5045244;28;20648;-64
2022/09/23 00:30:49;;;;;;;0.10;0.10;;;9.90;99.90;;;;;;5037307;28;20189;-64
2022/09/23 00:33:15;;;;;;;0.00;0.00;;;9.90;99.90;;;;;;5042497;28;20208;-64
2022/09/23 00:35:40;;;;;;;0.00;0.00;;;9.90;99.90;;;;;;5048710;28;20649;-64
2022/09/23 00:38:06;;;;;;;0.00;0.00;;;9.80;99.90;;;;;;5041638;28;20201;-64
2022/09/23 00:40:32;;;;;;;0.00;0.00;;;9.80;99.90;;;;;;5038902;28;20270;-64
2022/09/23 00:42:57;;;;;;;0.00;0.00;;;9.80;99.90;;;;;;5044554;28;20174;-64
2022/09/23 00:45:23;;;;;;;0.00;0.00;;;9.80;99.90;;;;;;5045618;28;20178;-64
2022/09/23 00:48:02;;;;;;;0.00;0.00;;;9.70;99.90;;;;;;5039228;28;20698;-64
2022/09/23 00:50:38;;;;;;;0.00;0.00;;;9.70;99.90;;;;;;5044770;28;20178;-64
2022/09/23 00:53:08;;;;;;;0.20;0.20;;;9.70;99.90;;;;;;5028984;28;20192;-64
2022/09/23 00:55:45;;;;;;;0.20;0.20;;;9.60;99.90;;;;;;5045930;28;20250;-64
2022/09/23 00:58:14;;;;;;;0.00;0.00;;;9.60;99.90;;;;;;5047696;28;20189;-64
2022/09/23 01:00:41;;;;;;;0.00;0.00;;;9.60;99.90;;;;;;5045631;28;20174;-64
2022/09/23 01:03:07;;;;;;;0.00;0.00;;;9.60;99.90;;;;;;5040616;28;20225;-64
2022/09/23 01:05:33;;;;;;;0.00;0.00;;;9.50;99.90;;;;;;5042354;28;20185;-64
2022/09/23 01:08:01;;;;;;;0.00;0.00;;;9.50;99.90;;;;;;5044854;28;20205;-64
2022/09/23 01:10:35;;;;;;;0.10;0.10;;;9.50;99.90;;;;;;5039396;28;20186;-64
2022/09/23 01:13:14;;;;;;;0.10;0.10;;;9.40;99.90;;;;;;5043350;28;20178;-64
2022/09/23 01:15:55;;;;;;;0.00;0.00;;;9.40;99.90;;;;;;5042665;28;20573;-64
2022/09/23 01:18:42;;;;;;;0.00;0.00;;;9.40;99.90;;;;;;5041795;28;20186;-64
2022/09/23 01:21:17;;;;;;;0.13;0.13;;;9.30;99.90;;;;;;5046572;28;20513;-64
2022/09/23 01:24:24;;;;;;;0.00;0.00;;;9.30;99.90;;;;;;5045254;28;20536;-64
2022/09/23 01:26:59;;;;;;;0.00;0.00;;;9.30;99.90;;;;;;5036728;28;20300;-64
2022/09/23 01:30:02;;;;;;;0.15;0.15;;;9.20;99.90;;;;;;5037822;28;20181;-64
2022/09/23 01:32:37;;;;;;;0.22;0.22;;;9.10;99.90;;;;;;5012896;28;20183;-64
2022/09/23 01:35:22;;;;;;;0.00;0.00;;;9.10;99.90;;;;;;5044528;28;20203;-64
2022/09/23 01:38:13;;;;;;;0.00;0.00;;;9.00;99.90;;;;;;5024430;28;20213;-64
2022/09/23 01:40:58;;;;;;;0.10;0.10;;;9.00;99.90;;;;;;5048970;28;20186;-64
2022/09/23 01:43:28;;;;;;;0.10;0.10;;;8.90;99.90;;;;;;5044869;28;20178;-64
2022/09/23 01:45:58;;;;;;;0.00;0.00;;;8.90;99.90;;;;;;5026936;28;20558;-64
2022/09/23 01:48:50;;;;;;;0.10;0.10;;;8.90;99.90;;;;;;5034417;28;20190;-64
2022/09/23 01:51:46;;;;;;;0.03;0.03;;;8.90;99.90;;;;;;5045065;28;20228;-64
2022/09/23 01:54:23;;;;;;;0.10;0.10;;;8.90;99.90;;;;;;5035063;28;20657;-64
2022/09/23 01:57:00;;;;;;;0.00;0.00;;;8.80;99.90;;;;;;5034788;28;20189;-64
2022/09/23 01:59:39;;;;;;;0.00;0.00;;;8.80;99.90;;;;;;5045632;28;20254;-64
2022/09/23 02:02:22;;;;;;;0.00;0.00;;;8.80;99.90;;;;;;5051827;28;20188;-64
2022/09/23 02:04:57;;;;;;;0.15;0.15;;;8.70;99.90;;;;;;5046554;28;20270;-64
2022/09/23 02:07:36;;;;;;;0.00;0.00;;;8.70;99.90;;;;;;5038518;28;20263;-64
2022/09/23 02:10:09;;;;;;;0.00;0.00;;;8.70;99.90;;;;;;5045916;28;20251;-64
2022/09/23 02:12:39;;;;;;;0.00;0.00;;;8.70;99.90;;;;;;5039243;28;20190;-64
2022/09/23 02:15:10;;;;;;;0.08;0.08;;;8.60;99.90;;;;;;5045731;28;20181;-64
2022/09/23 02:17:44;;;;;;;0.10;0.10;;;8.70;99.90;;;;;;5044523;28;20185;-64
2022/09/23 02:20:14;;;;;;;0.03;0.03;;;8.70;99.90;;;;;;5048023;28;20177;-63
2022/09/23 02:23:02;;;;;;;0.10;0.10;;;8.60;99.90;;;;;;5031896;28;20540;-64
2022/09/23 02:25:36;;;;;;;0.00;0.00;;;8.60;99.90;;;;;;5036506;28;20186;-63
2022/09/23 02:28:13;;;;;;;0.00;0.00;;;8.50;99.90;;;;;;5041318;28;20190;-63
2022/09/23 02:30:55;;;;;;;0.00;0.00;;;8.50;99.90;;;;;;5044106;28;20174;-64
2022/09/23 02:33:27;;;;;;;0.10;0.10;;;8.40;99.90;;;;;;5036470;28;20289;-64
2022/09/23 02:36:10;;;;;;;0.10;0.10;;;8.30;99.90;;;;;;5041413;28;20260;-64
2022/09/23 02:38:56;;;;;;;0.20;0.13;;;8.30;99.90;;;;;;5018937;28;20219;-63
2022/09/23 02:41:31;;;;;;;0.10;0.10;;;8.30;99.90;;;;;;5045821;28;20185;-64
2022/09/23 02:44:08;;;;;;;0.00;0.00;;;8.20;99.90;;;;;;5042851;28;20181;-64
2022/09/23 02:46:34;;;;;;;0.00;0.00;;;8.20;99.90;;;;;;5048027;28;20220;-64
2022/09/23 02:49:30;;;;;;;0.00;0.00;;;8.10;99.90;;;;;;5036652;28;20193;-64
2022/09/23 02:51:59;;;;;;;0.00;0.00;;;8.10;99.90;;;;;;5039646;28;20185;-64
2022/09/23 02:54:27;;;;;;;0.10;0.10;;;8.10;99.90;;;;;;5041592;28;20188;-64
2022/09/23 02:56:53;;;;;;;0.00;0.00;;;8.00;99.90;;;;;;5044635;28;20229;-64
2022/09/23 02:59:21;;;;;;;0.03;0.03;;;8.00;99.90;;;;;;5046025;28;20181;-63
2022/09/23 03:02:26;;;;;;;0.00;0.00;;;8.00;99.90;;;;;;5039888;28;20206;-63
2022/09/23 03:05:04;;;;;;;0.10;0.10;;;7.90;99.90;;;;;;5036845;28;20518;-64
2022/09/23 03:07:49;;;;;;;0.00;0.00;;;7.90;99.90;;;;;;5036382;28;20219;-63
2022/09/23 03:10:53;;;;;;;0.00;0.00;;;7.90;99.90;;;;;;5028937;28;20186;-63
2022/09/23 03:13:30;;;;;;;0.00;0.00;;;7.90;99.90;;;;;;5033371;28;20228;-63
2022/09/23 03:16:07;;;;;;;0.00;0.00;;;7.80;99.90;;;;;;5043222;28;20173;-63
2022/09/23 03:18:39;;;;;;;0.20;0.20;;;7.80;99.90;;;;;;5033465;28;20178;-64
2022/09/23 03:21:10;;;;;;;0.00;0.00;;;7.80;99.90;;;;;;5032152;28;20288;-64
2022/09/23 03:23:39;;;;;;;0.00;0.00;;;7.80;99.90;;;;;;5041823;28;20178;-63
2022/09/23 03:26:12;;;;;;;0.00;0.00;;;7.70;99.90;;;;;;5047429;28;20232;-63
2022/09/23 03:28:40;;;;;;;0.00;0.00;;;7.70;99.90;;;;;;5038431;28;20189;-63
2022/09/23 03:31:07;;;;;;;0.00;0.00;;;7.70;99.90;;;;;;5053352;28;20185;-63
2022/09/23 03:33:33;;;;;;;0.00;0.00;;;7.70;99.90;;;;;;5041332;28;20588;-64
2022/09/23 03:39:05;;;;;;;0.63;0.63;;;7.60;99.90;;;;;;5027523;28;20177;-63
2022/09/23 03:41:37;;;;;;;0.00;0.00;;;7.60;99.90;;;;;;5048238;28;20188;-63
2022/09/23 03:44:03;;;;;;;0.10;0.10;;;7.60;99.90;;;;;;5046016;28;20668;-63
2022/09/23 03:46:29;;;;;;;0.20;0.20;;;7.60;99.90;;;;;;5044811;28;20202;-64
2022/09/23 03:49:13;;;;;;;0.00;0.00;;;7.60;99.90;;;;;;5049169;28;20193;-63
2022/09/23 03:51:38;;;;;;;0.00;0.00;;;7.60;99.90;;;;;;5045833;28;20544;-63
2022/09/23 03:54:04;;;;;;;0.65;0.65;;;7.60;99.90;;;;;;5048763;28;20181;-66
2022/09/23 03:56:30;;;;;;;0.00;0.00;;;7.60;99.90;;;;;;5047216;28;20398;-64
2022/09/23 03:58:55;;;;;;;0.10;0.10;;;7.50;99.90;;;;;;5036638;28;20186;-65
2022/09/23 04:01:21;;;;;;;0.00;0.00;;;7.50;99.90;;;;;;5044308;28;20185;-66
2022/09/23 04:03:47;;;;;;;0.25;0.25;;;7.60;99.90;;;;;;5042468;28;20221;-65
2022/09/23 04:06:13;;;;;;;0.00;0.00;;;7.60;99.90;;;;;;5046684;28;20213;-64
2022/09/23 04:08:39;;;;;;;0.00;0.00;;;7.50;99.90;;;;;;5044215;28;20247;-65
2022/09/23 04:11:04;;;;;;;0.00;0.00;;;7.60;99.90;;;;;;5044546;28;20185;-63
2022/09/23 04:13:30;;;;;;;0.00;0.00;;;7.60;99.90;;;;;;5036946;28;20218;-65
2022/09/23 04:15:56;;;;;;;0.00;0.00;;;7.50;99.90;;;;;;5048008;28;20181;-63
2022/09/23 04:18:22;;;;;;;0.15;0.05;;;7.50;99.90;;;;;;5044674;28;20174;-66
2022/09/23 04:20:48;;;;;;;0.25;0.25;;;7.50;99.90;;;;;;5034002;28;20227;-66
2022/09/23 04:23:14;;;;;;;0.00;0.00;;;7.50;99.90;;;;;;5036324;28;20190;-65
2022/09/23 04:25:46;;;;;;;0.00;0.00;;;7.60;99.90;;;;;;5037840;28;20711;-67
2022/09/23 04:28:12;;;;;;;0.00;0.00;;;7.60;99.90;;;;;;5024511;28;20775;-65
2022/09/23 04:30:43;;;;;;;0.00;0.00;;;7.60;99.90;;;;;;5035804;28;20189;-63
2022/09/23 04:33:12;;;;;;;0.00;0.00;;;7.60;99.90;;;;;;5047434;28;20178;-61
2022/09/23 04:35:39;;;;;;;0.00;0.00;;;7.50;99.90;;;;;;5042202;28;20188;-61
2022/09/23 04:38:06;;;;;;;0.00;0.00;;;7.50;99.90;;;;;;5053610;28;20252;-60
2022/09/23 04:40:32;;;;;;;0.10;0.10;;;7.50;99.90;;;;;;5043202;28;20717;-67
2022/09/23 04:42:58;;;;;;;0.00;0.00;;;7.60;99.90;;;;;;5033295;28;20277;-68
2022/09/23 04:45:23;;;;;;;0.15;0.10;;;7.60;99.90;;;;;;5033615;28;20209;-65
2022/09/23 04:47:49;;;;;;;0.00;0.00;;;7.50;99.90;;;;;;5034492;28;20252;-65
2022/09/23 04:50:15;;;;;;;0.00;0.00;;;7.50;99.90;;;;;;5044983;28;20239;-65
2022/09/23 04:52:40;;;;;;;0.00;0.00;;;7.60;99.90;;;;;;5053225;28;20182;-65
2022/09/23 04:55:06;;;;;;;0.00;0.00;;;7.60;99.90;;;;;;5033579;28;20181;-65
2022/09/23 04:57:33;;;;;;;0.00;0.00;;;7.60;99.90;;;;;;5049190;28;20212;-65
2022/09/23 04:59:59;;;;;;;0.17;0.17;;;7.60;99.90;;;;;;5053312;28;20181;-64
2022/09/23 05:02:24;;;;;;;0.00;0.00;;;7.60;99.90;;;;;;5052779;28;20716;-64
2022/09/23 05:04:50;;;;;;;0.00;0.00;;;7.70;99.90;;;;;;5053090;28;20201;-64
2022/09/23 05:07:17;;;;;;;0.10;0.00;;;7.70;99.90;;;;;;5053208;28;20217;-65
2022/09/23 05:09:42;;;;;;;0.00;0.00;;;7.70;99.90;;;;;;5053319;28;20177;-65
2022/09/23 05:12:08;;;;;;;0.47;0.43;;;7.80;99.90;;;;;;5053218;28;20177;-64
2022/09/23 05:14:33;;;;;;;0.05;0.05;;;7.80;99.90;;;;;;5052889;28;20199;-65
2022/09/23 05:16:59;;;;;;;0.00;0.00;;;7.80;99.90;;;;;;5053311;28;20324;-64
2022/09/23 05:19:24;;;;;;;0.00;0.00;;;7.80;99.90;;;;;;5043996;28;20190;-64
2022/09/23 05:21:50;;;;;;;0.00;0.00;;;7.80;99.90;;;;;;5052093;28;20185;-64
2022/09/23 05:24:15;;;;;;;0.10;0.10;;;7.90;99.90;;;;;;5052919;28;20181;-64
2022/09/23 05:26:41;;;;;;;0.00;0.00;;;7.90;99.90;;;;;;5052759;28;20213;-64
2022/09/23 05:29:07;;;;;;;0.00;0.00;;;8.00;99.90;;;;;;5052939;28;20541;-64
2022/09/23 05:31:33;;;;;;;0.00;0.00;;;8.00;99.90;;;;;;5052627;28;20268;-64
2022/09/23 05:34:04;;;;;;;0.00;0.00;;;8.00;99.90;;;;;;5052848;28;20178;-64
2022/09/23 05:36:31;;;;;;;0.00;0.00;;;8.10;99.90;;;;;;5052800;28;20588;-64
2022/09/23 05:38:57;;;;;;;0.00;0.00;;;8.10;99.90;;;;;;5052740;28;20173;-65
2022/09/23 05:41:24;;;;;;;0.00;0.00;;;8.20;99.90;;;;;;5052814;28;20204;-64
2022/09/23 05:43:51;;;;;;;0.13;0.13;;;8.20;99.90;;;;;;5052642;28;20533;-65
2022/09/23 05:46:19;;;;;;;0.10;0.10;;;8.30;99.90;;;;;;5052312;28;20691;-65
2022/09/23 05:48:46;;;;;;;0.10;0.10;;;8.40;99.90;;;;;;5052648;28;20192;-64
2022/09/23 05:51:17;;;;;;;0.20;0.20;;;8.50;99.90;;;;;;5052546;28;20198;-64
2022/09/23 05:53:46;;;;;;;0.00;0.00;;;8.50;99.90;;;;;;5052265;28;20277;-65
2022/09/23 05:56:13;;;;;;;0.00;0.00;;;8.60;99.90;;;;;;5052356;28;20703;-64
2022/09/23 05:58:38;;;;;;;0.10;0.10;;;8.70;99.90;;;;;;5052520;28;20189;-65
2022/09/23 06:01:12;;;;;;;0.30;0.10;;;8.80;99.90;;;;;;5052367;28;20640;-64
2022/09/23 06:03:38;;;;;;;0.00;0.00;;;8.90;99.90;;;;;;5052305;28;20281;-64
2022/09/23 06:06:04;;;;;;;0.00;0.00;;;9.00;99.90;;;;;;5052297;28;20255;-64
2022/09/23 06:08:30;;;;;;;0.00;0.00;;;9.10;99.90;;;;;;5052182;28;20272;-65
2022/09/23 06:10:57;;;;;;;0.00;0.00;;;9.20;99.90;;;;;;5052239;28;20222;-64
2022/09/23 06:13:23;;;;;;;0.10;0.10;;;9.30;99.90;;;;;;5052172;28;20216;-64
2022/09/23 06:15:49;;;;;;;0.30;0.30;;;9.40;99.90;;;;;;5052201;28;20185;-64
2022/09/23 06:18:16;;;;;;;0.00;0.00;;;9.60;99.90;;;;;;5052082;28;20181;-64
2022/09/23 06:20:41;;;;;;;0.00;0.00;;;9.80;99.90;;;;;;5036493;28;20177;-64
2022/09/23 06:23:09;;;;;;;0.05;0.05;;;10.20;99.90;;;;;;5032133;28;20265;-64
2022/09/23 06:25:37;;;;;;;0.00;0.00;;;10.50;99.90;;;;;;5030818;28;20523;-63
2022/09/23 06:28:03;;;;;;;0.00;0.00;;;10.80;99.90;;;;;;5032032;28;20620;-65
2022/09/23 06:30:29;;;;;;;0.38;0.32;;;11.20;99.90;;;;;;5030784;28;20185;-65
2022/09/23 06:32:56;;;;;;;0.10;0.10;;;11.70;99.90;;;;;;5032129;28;20526;-65
2022/09/23 06:35:24;;;;;;;0.00;0.00;;;12.10;99.90;;;;;;5031975;28;20178;-64
2022/09/23 06:37:50;;;;;;;0.00;0.00;;;12.50;99.90;;;;;;5031984;28;20201;-65
2022/09/23 06:40:16;;;;;;;0.10;0.10;;;12.80;99.90;;;;;;5031853;28;20641;-65
2022/09/23 06:42:42;;;;;;;0.00;0.00;;;13.20;99.90;;;;;;5031948;28;20249;-65
2022/09/23 06:45:13;;;;;;;0.00;0.00;;;13.60;99.90;;;;;;5031832;28;20190;-65
2022/09/23 06:47:39;;;;;;;0.15;0.15;;;14.00;99.90;;;;;;5031778;28;20221;-65
2022/09/23 06:50:06;;;;;;;0.00;0.00;;;14.50;99.80;;;;;;5031755;28;20622;-65
2022/09/23 06:52:32;;;;;;;0.00;0.00;;;15.00;98.80;;;;;;5031797;28;20611;-65
2022/09/23 06:54:57;;;;;;;0.28;0.20;;;15.40;98.00;;;;;;5031689;28;20176;-65
2022/09/23 06:57:23;;;;;;;0.00;0.00;;;15.80;96.90;;;;;;5031749;28;20187;-65
2022/09/23 06:59:49;;;;;;;0.20;0.20;;;16.20;96.50;;;;;;5031855;28;20170;-65
2022/09/23 07:02:14;;;;;;;0.05;0.05;;;16.50;95.90;;;;;;5031463;28;20708;-65
2022/09/23 07:04:40;;;;;;;0.00;0.00;;;16.80;94.70;;;;;;5032848;28;20182;-65
2022/09/23 07:07:05;;;;;;;0.10;0.10;;;17.10;93.90;;;;;;5035677;28;20213;-65
2022/09/23 07:09:31;;;;;;;0.00;0.00;;;17.30;93.00;;;;;;5035630;28;20174;-65
2022/09/23 07:11:56;;;;;;;0.00;0.00;;;17.50;91.80;;;;;;5035570;28;20229;-65
2022/09/23 07:14:23;;;;;;;0.00;0.00;;;17.40;90.90;;;;;;5035655;28;20684;-65
2022/09/23 07:16:49;;;;;;;0.00;0.00;;;17.30;90.60;;;;;;5035650;28;20261;-65
2022/09/23 07:19:15;;;;;;;0.00;0.00;;;17.20;90.70;;;;;;5035371;28;20178;-65
2022/09/23 07:21:40;;;;;;;0.00;0.00;;;16.90;90.70;;;;;;5035319;28;20180;-65
2022/09/23 07:24:06;;;;;;;0.00;0.00;;;16.70;90.70;;;;;;5035500;28;20175;-65
2022/09/23 07:26:32;;;;;;;0.00;0.00;;;16.60;91.40;;;;;;5035185;28;20216;-65
2022/09/23 07:29:03;;;;;;;0.00;0.00;;;16.30;91.00;;;;;;5035230;28;20190;-65
2022/09/23 07:31:30;;;;;;;0.00;0.00;;;16.10;91.60;;;;;;5035271;28;20227;-65
2022/09/23 07:33:56;;;;;;;0.00;0.00;;;16.00;92.20;;;;;;5035333;28;20232;-65
2022/09/23 07:36:22;;;;;;;0.00;0.00;;;15.90;92.70;;;;;;5035138;28;20232;-65
2022/09/23 07:38:48;;;;;;;0.00;0.00;;;15.90;93.20;;;;;;5035216;28;20173;-65
2022/09/23 07:41:17;;;;;;;0.00;0.00;;;15.90;93.40;;;;;;5035087;28;20570;-64
2022/09/23 07:43:44;;;;;;;0.00;0.00;;;16.00;93.50;;;;;;5035037;28;20637;-65
2022/09/23 07:46:16;;;;;;;0.00;0.00;;;16.20;93.40;;;;;;5034970;28;20198;-65
2022/09/23 07:48:42;;;;;;;0.00;0.00;;;16.30;93.40;;;;;;5035015;28;20510;-65
2022/09/23 07:51:15;;;;;;;0.00;0.00;;;16.60;92.90;;;;;;5034978;28;20177;-65
2022/09/23 07:53:41;;;;;;;0.25;0.13;;;16.70;92.00;;;;;;5034939;28;20265;-65
2022/09/23 07:56:06;;;;;;;0.00;0.00;;;16.90;91.70;;;;;;5034861;28;20265;-65
2022/09/23 07:58:33;;;;;;;0.00;0.00;;;17.00;92.00;;;;;;5034782;28;20181;-65
2022/09/23 08:01:06;;;;;;;0.10;0.10;;;17.10;92.20;;;;;;5034628;28;20186;-66
2022/09/23 08:03:32;;;;;;;0.10;0.10;;;17.20;92.10;;;;;;5034531;28;20225;-65
2022/09/23 08:06:12;;;;;;;0.00;0.00;;;17.40;92.10;;;;;;5034435;28;20550;-65
2022/09/23 08:08:42;;;;;;;0.20;0.20;;;17.60;91.70;;;;;;5034500;28;20190;-65
2022/09/23 08:11:09;;;;;;;0.00;0.00;;;17.90;91.00;;;;;;5034540;28;20185;-65
2022/09/23 08:13:35;;;;;;;0.00;0.00;;;18.20;90.50;;;;;;5034517;28;20764;-65
2022/09/23 08:16:02;;;;;;;0.10;0.10;;;18.50;90.10;;;;;;5034218;28;20593;-65
2022/09/23 08:18:27;;;;;;;0.08;0.08;;;18.70;88.90;;;;;;5034264;28;20652;-66
2022/09/23 08:20:53;;;;;;;0.08;0.08;;;19.00;88.40;;;;;;5034487;28;20178;-66
2022/09/23 08:23:19;;;;;;;0.00;0.00;;;19.20;86.70;;;;;;5034237;28;20734;-65
2022/09/23 08:25:46;;;;;;;0.05;0.05;;;19.40;86.30;;;;;;5034377;28;20175;-66
2022/09/23 08:28:15;;;;;;;0.00;0.00;;;19.60;85.20;;;;;;5034136;28;20730;-66
2022/09/23 08:30:41;;;;;;;0.00;0.00;;;19.70;85.60;;;;;;5034071;28;20695;-66
2022/09/23 08:33:07;;;;;;;0.00;0.00;;;20.00;83.50;;;;;;5034204;28;20182;-66
2022/09/23 08:35:32;;;;;;;0.10;0.10;;;20.10;83.00;;;;;;5033973;28;20181;-66
2022/09/23 08:37:58;;;;;;;0.03;0.03;;;20.20;83.10;;;;;;5033859;28;20175;-66
2022/09/23 08:40:23;;;;;;;0.00;0.00;;;20.20;81.40;;;;;;5033992;28;20178;-66
2022/09/23 08:42:49;;;;;;;0.00;0.00;;;20.20;81.40;;;;;;5034138;28;20663;-66
2022/09/23 08:45:24;;;;;;;0.00;0.00;;;20.30;81.00;;;;;;5033916;28;20178;-65
2022/09/23 08:47:49;;;;;;;0.00;0.00;;;20.60;81.30;;;;;;5032731;28;20247;-66
2022/09/23 08:50:32;;;;;;;0.00;0.00;;;20.70;77.50;;;;;;5033790;28;20178;-65
2022/09/23 08:53:03;;;;;;;0.00;0.00;;;20.60;78.20;;;;;;5033725;28;20178;-66
2022/09/23 08:55:34;;;;;;;0.00;0.00;;;20.80;77.60;;;;;;5032488;28;20709;-66
2022/09/23 08:58:35;;;;;;;0.00;0.00;;;20.90;78.60;;;;;;5033502;28;20185;-66
2022/09/23 09:01:20;;;;;;;0.00;0.00;;;20.80;78.10;;;;;;5033777;28;20185;-66
2022/09/23 09:03:52;;;;;;;0.00;0.00;;;20.80;78.00;;;;;;5033521;28;20225;-66
2022/09/23 09:06:30;;;;;;;0.00;0.00;;;20.90;78.00;;;;;;5033266;28;20672;-66
2022/09/23 09:08:59;;;;;;;0.00;0.00;;;21.00;77.80;;;;;;5033553;28;20225;-66
2022/09/23 09:11:32;;;;;;;0.00;0.00;;;21.00;77.50;;;;;;5033398;28;20166;-66
2022/09/23 09:14:18;;;;;;;0.00;0.00;;;20.90;75.10;;;;;;5033398;28;20186;-66
2022/09/23 09:16:57;;;;;;;0.00;0.00;;;20.60;76.10;;;;;;5033327;28;20257;-66
2022/09/23 09:19:51;;;;;;;0.10;0.00;;;20.50;75.00;;;;;;5033143;28;20185;-66
2022/09/23 09:22:41;;;;;;;0.00;0.00;;;20.60;75.50;;;;;;5033106;28;20182;-66
2022/09/23 09:25:27;;;;;;;0.00;0.00;;;20.50;75.50;;;;;;5033253;28;20220;-66
2022/09/23 09:27:54;;;;;;;0.00;0.00;;;20.50;74.40;;;;;;5032492;28;20210;-66
2022/09/23 09:30:21;;;;;;;0.00;0.00;;;20.40;74.90;;;;;;5032897;28;20186;-65
2022/09/23 09:32:58;;;;;;;0.00;0.00;;;20.40;75.60;;;;;;5033073;28;20236;-66
2022/09/23 09:35:55;;;;;;;0.00;0.00;;;20.70;74.30;;;;;;5033010;28;20178;-66
2022/09/23 09:38:21;;;;;;;0.20;0.20;;;20.80;75.30;;;;;;5032931;28;20728;-66
2022/09/23 09:40:47;;;;;;;0.00;0.00;;;21.00;76.50;;;;;;5032888;28;20257;-66
2022/09/23 09:43:25;;;;;;;0.00;0.00;;;21.20;73.00;;;;;;5032810;28;20209;-65
2022/09/23 09:46:20;;;;;;;0.00;0.00;;;21.30;73.10;;;;;;5032769;28;20178;-66
2022/09/23 09:49:00;;;;;;;0.00;0.00;;;21.40;72.20;;;;;;5032780;28;20178;-66
2022/09/23 09:51:28;;;;;;;0.00;0.00;;;21.60;74.20;;;;;;5032694;28;20228;-66
2022/09/23 09:53:55;;;;;;;0.00;0.00;;;21.60;74.40;;;;;;5032764;28;20185;-66
2022/09/23 09:56:31;;;;;;;0.00;0.00;;;21.80;75.20;;;;;;5032477;28;20676;-66
2022/09/23 09:59:07;;;;;;;0.00;0.00;;;22.00;72.80;;;;;;5032611;28;20196;-66
2022/09/23 10:01:34;;;;;;;0.00;0.00;;;22.10;73.20;;;;;;5032472;28;20633;-66
2022/09/23 10:04:02;;;;;;;0.00;0.00;;;22.20;70.50;;;;;;5032243;28;20254;-66
2022/09/23 10:06:33;;;;;;;0.00;0.00;;;22.10;71.00;;;;;;5032360;28;20198;-65
2022/09/23 10:09:07;;;;;;;0.00;0.00;;;22.20;70.90;;;;;;5032387;28;20178;-66
2022/09/23 10:11:33;;;;;;;0.00;0.00;;;22.50;69.30;;;;;;5032300;28;20182;-65
2022/09/23 10:14:01;;;;;;;0.00;0.00;;;22.70;70.00;;;;;;5032180;28;20656;-65
2022/09/23 10:16:32;;;;;;;0.20;0.20;;;22.80;68.90;;;;;;5032275;28;20247;-65
2022/09/23 10:19:13;;;;;;;0.13;0.13;;;22.80;69.30;;;;;;5032128;28;20178;-65
2022/09/23 10:21:41;;;;;;;0.00;0.00;;;22.60;68.10;;;;;;5032111;28;20656;-66
2022/09/23 10:24:07;;;;;;;0.00;0.00;;;22.60;70.10;;;;;;5032173;28;20209;-65
2022/09/23 10:26:50;;;;;;;0.00;0.00;;;22.60;69.80;;;;;;5031966;28;20233;-65
2022/09/23 10:29:32;;;;;;;0.13;0.13;;;22.60;70.20;;;;;;5032069;28;20201;-65
2022/09/23 10:32:22;;;;;;;0.00;0.00;;;22.70;69.40;;;;;;5032118;28;20174;-66
2022/09/23 10:34:52;;;;;;;0.00;0.00;;;22.90;67.30;;;;;;5032080;28;20178;-65
2022/09/23 10:37:25;;;;;;;0.00;0.00;;;23.10;66.30;;;;;;5031779;28;20649;-65
2022/09/23 10:48:29;;;;;;;0.00;0.00;;;23.60;63.20;;;;;;5031911;28;20189;-67
2022/09/23 10:50:57;;;;;;;0.10;0.10;;;23.60;62.80;;;;;;5031800;28;20178;-66
2022/09/23 10:53:55;;;;;;;0.00;0.00;;;23.60;63.00;;;;;;5031723;28;20269;-66
2022/09/23 10:56:33;;;;;;;0.22;0.22;;;23.70;62.70;;;;;;5031672;28;20658;-66
2022/09/23 10:59:39;;;;;;;0.00;0.00;;;23.50;62.70;;;;;;5031686;28;20201;-66
2022/09/23 11:02:10;;;;;;;0.10;0.10;;;23.40;62.80;;;;;;5031444;28;20531;-66
2022/09/23 11:04:51;;;;;;;0.10;0.10;;;23.40;65.10;;;;;;5031697;28;20209;-65
2022/09/23 11:07:26;;;;;;;0.00;0.00;;;22.90;62.20;;;;;;5031469;28;20244;-65
2022/09/23 11:10:25;;;;;;;0.00;0.00;;;22.80;64.60;;;;;;5031700;28;20640;-66
2022/09/23 11:13:02;;;;;;;0.00;0.00;;;23.00;63.50;;;;;;5031767;28;20558;-65
2022/09/23 11:15:51;;;;;;;0.00;0.00;;;23.20;64.80;;;;;;5031526;28;20178;-65
2022/09/23 11:18:48;;;;;;;0.00;0.00;;;23.20;62.80;;;;;;5030400;28;20194;-65
2022/09/23 11:21:29;;;;;;;0.00;0.00;;;23.40;63.90;;;;;;5031477;28;20679;-64
2022/09/23 11:24:39;;;;;;;0.00;0.00;;;23.40;63.80;;;;;;5031673;28;20205;-65
2022/09/23 11:27:20;;;;;;;0.00;0.00;;;23.30;61.80;;;;;;5029218;28;20214;-65
2022/09/23 11:30:05;;;;;;;0.00;0.00;;;23.60;62.30;;;;;;5031204;28;20182;-64
2022/09/23 11:32:39;;;;;;;0.05;0.05;;;23.80;61.20;;;;;;5031569;28;20261;-66
2022/09/23 11:35:18;;;;;;;0.00;0.00;;;23.80;60.90;;;;;;5031537;28;20170;-66
2022/09/23 11:37:59;;;;;;;0.00;0.00;;;23.50;60.70;;;;;;5031483;28;20182;-66
2022/09/23 11:40:36;;;;;;;0.00;0.00;;;23.40;62.90;;;;;;5031365;28;20571;-64
2022/09/23 11:43:32;;;;;;;0.00;0.00;;;23.30;60.70;;;;;;5031419;28;20243;-65
2022/09/23 11:46:08;;;;;;;0.00;0.00;;;22.80;61.20;;;;;;5031273;28;20248;-65
2022/09/23 11:49:01;;;;;;;0.00;0.00;;;22.40;63.50;;;;;;5031316;28;20173;-65
2022/09/23 11:51:55;;;;;;;0.05;0.00;;;22.30;64.40;;;;;;5033496;28;20174;-64
2022/09/23 11:54:27;;;;;;;0.00;0.00;;;22.40;65.60;;;;;;5034349;28;20194;-65
2022/09/23 11:56:57;;;;;;;0.05;0.05;;;22.20;65.30;;;;;;5034960;28;20217;-64
2022/09/23 11:59:37;;;;;;;0.00;0.00;;;22.00;65.30;;;;;;5034791;28;20229;-65
2022/09/23 12:02:13;;;;;;;0.00;0.00;;;22.10;67.20;;;;;;5034680;28;20240;-64
2022/09/23 12:04:43;;;;;;;0.00;0.00;;;22.40;67.10;;;;;;5034676;28;20178;-64
2022/09/23 12:07:13;;;;;;;0.00;0.00;;;22.60;65.50;;;;;;5033371;28;20639;-64
2022/09/23 12:09:52;;;;;;;0.00;0.00;;;22.70;65.90;;;;;;5034495;28;20684;-64
2022/09/23 12:12:30;;;;;;;0.00;0.00;;;22.60;66.70;;;;;;5034474;28;20178;-64
2022/09/23 12:15:40;;;;;;;0.00;0.00;;;22.40;66.80;;;;;;5034669;28;20170;-65
2022/09/23 12:18:34;;;;;;;0.00;0.00;;;22.20;66.70;;;;;;5033848;28;20712;-64
2022/09/23 12:21:18;;;;;;;0.00;0.00;;;22.20;67.50;;;;;;5034375;28;20193;-64
2022/09/23 12:24:00;;;;;;;0.00;0.00;;;22.50;67.30;;;;;;5034553;28;20586;-65
2022/09/23 12:26:26;;;;;;;0.00;0.00;;;22.80;66.40;;;;;;5034199;28;20234;-65
2022/09/23 12:28:54;;;;;;;0.00;0.00;;;23.00;65.80;;;;;;5034336;28;20192;-64
2022/09/23 12:31:29;;;;;;;0.00;0.00;;;22.90;64.60;;;;;;5034014;28;20178;-64
2022/09/23 12:33:59;;;;;;;0.00;0.00;;;22.90;65.60;;;;;;5034312;28;20189;-64
2022/09/23 12:36:33;;;;;;;0.00;0.00;;;23.00;64.60;;;;;;5034130;28;20258;-64
2022/09/23 12:39:13;;;;;;;0.08;0.08;;;23.00;63.50;;;;;;5034101;28;20166;-65
2022/09/23 12:41:42;;;;;;;0.00;0.00;;;23.10;64.30;;;;;;5033939;28;20165;-65
2022/09/23 12:44:11;;;;;;;0.08;0.08;;;22.90;64.00;;;;;;5034085;28;20174;-65
2022/09/23 12:46:47;;;;;;;0.00;0.00;;;22.80;64.70;;;;;;5033807;28;20210;-65
2022/09/23 12:49:26;;;;;;;0.00;0.00;;;22.90;64.60;;;;;;5033938;28;20229;-64
2022/09/23 12:52:09;;;;;;;0.00;0.00;;;22.90;63.80;;;;;;5033796;28;20178;-65
2022/09/23 12:54:35;;;;;;;0.00;0.00;;;22.90;62.90;;;;;;5033661;28;20177;-64
2022/09/23 12:57:03;;;;;;;0.20;0.00;;;23.00;63.60;;;;;;5033763;28;20178;-65
2022/09/23 12:59:31;;;;;;;0.00;0.00;;;22.80;63.00;;;;;;5033642;28;20273;-64
2022/09/23 13:02:09;;;;;;;0.10;0.10;;;22.60;63.60;;;;;;5032458;28;20729;-65
2022/09/23 13:07:30;;;;;;;0.00;0.00;;;22.10;66.50;;;;;;5033459;28;20224;-65
2022/09/23 13:10:07;;;;;;;0.90;0.20;;;21.80;66.90;;;;;;5033605;28;20202;-67
2022/09/23 13:12:37;;;;;;;0.00;0.00;;;21.80;69.00;;;;;;5033505;28;20212;-67
2022/09/23 13:15:37;;;;;;;0.00;0.00;;;21.90;68.00;;;;;;5033452;28;20273;-66
2022/09/23 13:18:19;;;;;;;0.52;0.15;;;22.00;66.90;;;;;;5032986;28;20653;-67
2022/09/23 13:20:45;;;;;;;0.00;0.00;;;21.90;67.60;;;;;;5033517;28;20189;-65
2022/09/23 13:23:26;;;;;;;0.00;0.00;;;21.80;67.20;;;;;;5033213;28;20174;-64
2022/09/23 13:25:56;;;;;;;0.00;0.00;;;21.80;67.60;;;;;;5033239;28;21102;-65
2022/09/23 13:28:30;;;;;;;0.00;0.00;;;22.00;67.90;;;;;;5033115;28;20222;-64
2022/09/23 13:30:57;;;;;;;0.00;0.00;;;21.80;66.30;;;;;;5033170;28;20184;-65
2022/09/23 13:33:31;;;;;;;0.00;0.00;;;21.60;67.00;;;;;;5032888;28;20657;-65
2022/09/23 13:36:01;;;;;;;0.10;0.10;;;21.50;67.70;;;;;;5033053;28;20216;-65